Ct Longford — 9HYM9 — position and weather

sailwx.info

Track history (hours):
 
Tides and Currents Weather Stations Pressure Air Temp Water Temp Dewpoint Dewpoint Depression Visibility Wind Speed Wind Dir Waves Ship Positions

Ct Longford

Last reported at 2014-May-10 03:32 UTC. Time now 2014-Jul-24 17:00 UTC.
Position N 32°41' W 079°41'.
Warning: this ship's position is months out of date.

Length 117 m; draft 5.5 m.

Type: Tanker. MMSI: 249706000.

Date/timePositionNaut miles runAvg speedWind from/ knotsBaromVisibWave heightAir tempDewpointWater temp
2014-May-10 03:32N 32°41' W 079°41'0 0.0
2014-May-10 02:29N 32°41' W 079°41'0 0.0
2014-May-10 01:32N 32°41' W 079°41'0 0.0
2014-May-10 00:20N 32°41' W 079°41'0 0.0
2014-May-09 21:41N 32°41' W 079°41'3 0.4
2014-May-09 14:33N 32°39' W 079°38'0 0.0
2014-May-09 12:06N 32°39' W 079°38'0 0.0
2014-May-09 11:30N 32°39' W 079°38'0 0.0
2014-May-09 10:27N 32°39' W 079°38'0 0.0
2014-May-09 09:12N 32°39' W 079°38'0 0.0
2014-May-09 08:33N 32°39' W 079°38'0 0.0
2014-May-09 07:33N 32°39' W 079°38'0 0.0
2014-May-09 06:33N 32°39' W 079°38'0 0.0
2014-May-09 05:33N 32°39' W 079°38'0 0.0
2014-May-09 04:27N 32°39' W 079°38'0 0.0
2014-May-09 03:33N 32°39' W 079°38'0 0.0
2014-May-09 02:03N 32°39' W 079°38'0 0.0
2014-May-09 01:33N 32°39' W 079°38'0 0.0
2014-May-09 00:30N 32°39' W 079°38'7 6.7
2014-May-08 23:31N 32°34' W 079°34'5 3.8
2014-May-08 22:15N 32°38' W 079°36'2 2.5
2014-May-08 21:32N 32°40' W 079°38'0 0.0
2014-May-08 20:29N 32°40' W 079°38'0 0.0
2014-May-08 19:29N 32°40' W 079°38'0 0.0
2014-May-08 11:29N 32°40' W 079°38'1 0.3
2014-May-08 09:08N 32°40' W 079°38'1 1.7
2014-May-08 08:34N 32°39' W 079°38'3 1.5
2014-May-08 06:31N 32°36' W 079°35'1311.1
2014-May-08 05:19N 32°43' W 079°49'  
Track history (hours):
 
Tides and Currents Weather Stations Pressure Air Temp Water Temp Dewpoint Dewpoint Depression Visibility Wind Speed Wind Dir Waves Ship Positions

Ct Longford

Last reported at 2014-May-10 03:32 UTC. Time now 2014-Jul-24 17:00 UTC.
Position N 32°41' W 079°41'.
Warning: this ship's position is months out of date.

Length 117 m; draft 5.5 m.

Type: Tanker. MMSI: 249706000.

Date/timePositionNaut miles runAvg speedWind from/ knotsBaromVisibWave heightAir tempDewpointWater temp
2014-May-10 03:32N 32°41' W 079°41'0 0.0
2014-May-10 02:29N 32°41' W 079°41'0 0.0
2014-May-10 01:32N 32°41' W 079°41'0 0.0
2014-May-10 00:20N 32°41' W 079°41'0 0.0
2014-May-09 21:41N 32°41' W 079°41'3 0.4
2014-May-09 14:33N 32°39' W 079°38'0 0.0
2014-May-09 12:06N 32°39' W 079°38'0 0.0
2014-May-09 11:30N 32°39' W 079°38'0 0.0
2014-May-09 10:27N 32°39' W 079°38'0 0.0
2014-May-09 09:12N 32°39' W 079°38'0 0.0
2014-May-09 08:33N 32°39' W 079°38'0 0.0
2014-May-09 07:33N 32°39' W 079°38'0 0.0
2014-May-09 06:33N 32°39' W 079°38'0 0.0
2014-May-09 05:33N 32°39' W 079°38'0 0.0
2014-May-09 04:27N 32°39' W 079°38'0 0.0
2014-May-09 03:33N 32°39' W 079°38'0 0.0
2014-May-09 02:03N 32°39' W 079°38'0 0.0
2014-May-09 01:33N 32°39' W 079°38'0 0.0
2014-May-09 00:30N 32°39' W 079°38'7 6.7
2014-May-08 23:31N 32°34' W 079°34'5 3.8
2014-May-08 22:15N 32°38' W 079°36'2 2.5
2014-May-08 21:32N 32°40' W 079°38'0 0.0
2014-May-08 20:29N 32°40' W 079°38'0 0.0
2014-May-08 19:29N 32°40' W 079°38'0 0.0
2014-May-08 11:29N 32°40' W 079°38'1 0.3
2014-May-08 09:08N 32°40' W 079°38'1 1.7
2014-May-08 08:34N 32°39' W 079°38'3 1.5
2014-May-08 06:31N 32°36' W 079°35'1311.1
2014-May-08 05:19N 32°43' W 079°49'  

Dump ship's entire track history